Norbeck, Maryland
Current Conditions -  °F | °C
As of 9:15 AM on Thursday 29 Jan 2015 (Local Time) from KGAI Reporting Station
Clear Clear  
Wind Chill: 19°   Ceiling: Unl
Heat Index: 25°   Visibility: 10mi
Dew Point:   Wind: 5mph
Humidity: 46%   Direction: 110°ESE
Pressure: 30.31"   Gusts: NA
Location:  39.0912°N, 77.0554°W
Report Text: KGAI 291415Z 11004KT 10SM CLR M04/M14 A3031 RMK AO1
Loading
Personal Weather Stations






























Interactive Weather Map New forecast layout! Learn more

10-Day Weather Forecast

Advertisements
Track Severe Weather on mobile